createdAt,value
2022-11-18T00:01:57.557Z,47.81789
2022-11-18T00:06:59.343Z,48.72997
2022-11-18T00:12:01.155Z,50.2489
2022-11-18T00:17:02.790Z,49.95412
2022-11-18T00:22:04.460Z,51.02181
2022-11-18T00:27:06.181Z,52.11379
2022-11-18T00:32:08.055Z,50.9031
2022-11-18T00:37:09.841Z,53.0841
2022-11-18T00:42:11.608Z,51.46221
2022-11-18T00:47:13.235Z,51.62779
2022-11-18T00:52:14.881Z,52.23322
2022-11-18T00:57:16.617Z,52.17195
2022-11-18T01:02:18.326Z,54.56861
2022-11-18T01:07:20.098Z,52.94896
2022-11-18T01:12:21.883Z,51.90504
2022-11-18T01:17:23.534Z,52.27006
2022-11-18T01:22:25.145Z,51.67729
2022-11-18T01:27:26.866Z,53.70628
2022-11-18T01:32:28.947Z,54.45808
2022-11-18T01:37:30.667Z,54.89235
2022-11-18T01:42:32.308Z,55.57778
2022-11-18T01:47:33.970Z,55.81415
2022-11-18T01:52:35.700Z,55.28353
2022-11-18T01:57:37.439Z,54.01827
2022-11-18T02:02:39.257Z,54.87234
2022-11-18T02:07:41.341Z,55.2629
2022-11-18T02:12:43.167Z,52.35529
2022-11-18T02:17:44.792Z,53.21735
2022-11-18T02:22:46.456Z,51.92573
2022-11-18T02:27:48.105Z,52.29061
2022-11-18T02:32:49.858Z,51.13788
2022-11-18T02:37:51.504Z,52.39645
2022-11-18T02:42:53.512Z,53.28818
2022-11-18T02:47:55.790Z,53.14082
2022-11-18T02:52:57.510Z,52.63271
2022-11-18T02:58:00.138Z,50.68776
2022-11-18T03:03:01.744Z,49.87108
2022-11-18T03:08:03.447Z,51.2485
2022-11-18T03:13:05.148Z,51.52794
2022-11-18T03:18:06.777Z,52.48532
2022-11-18T03:23:08.624Z,52.3146
2022-11-18T03:28:10.299Z,51.74943
2022-11-18T03:33:11.974Z,51.63086
2022-11-18T03:38:13.850Z,50.78082
2022-11-18T03:43:15.522Z,51.59987
2022-11-18T03:48:17.343Z,52.72982
2022-11-18T03:53:19.142Z,53.3071
2022-11-18T03:58:20.808Z,52.8141
2022-11-18T04:03:22.471Z,52.9085
2022-11-18T04:08:24.563Z,53.56581
2022-11-18T04:13:26.327Z,54.80919
2022-11-18T04:18:28.044Z,54.25841
2022-11-18T04:23:29.927Z,54.25482
2022-11-18T04:28:31.612Z,53.97539
2022-11-18T04:33:33.297Z,55.267
2022-11-18T04:38:35.365Z,53.74475
2022-11-18T04:43:37.429Z,52.7354
2022-11-18T04:48:39.463Z,50.44575
2022-11-18T04:53:41.220Z,51.73113
2022-11-18T04:58:45.256Z,51.11997
2022-11-18T05:03:50.520Z,52.00518
2022-11-18T05:08:52.783Z,51.1256
2022-11-18T05:13:54.446Z,50.44014
2022-11-18T05:18:56.175Z,51.18782
2022-11-18T05:23:57.847Z,51.22355
2022-11-18T05:28:59.818Z,52.17036
2022-11-18T05:34:01.458Z,54.34651
2022-11-18T05:39:03.128Z,54.28713
2022-11-18T05:44:05.295Z,54.81643
2022-11-18T05:49:06.911Z,53.82963
2022-11-18T05:54:08.612Z,53.36789
2022-11-18T05:59:10.245Z,52.9816
2022-11-18T06:04:12.009Z,53.28308
2022-11-18T06:09:13.872Z,52.57925
2022-11-18T06:14:15.588Z,53.83588
2022-11-18T06:19:17.518Z,55.13127
2022-11-18T06:24:19.365Z,55.28711
2022-11-18T06:29:27.280Z,55.30582
2022-11-18T06:34:29.724Z,54.12313
2022-11-18T06:39:31.314Z,53.90442
2022-11-18T06:44:33.050Z,54.05227
2022-11-18T06:49:34.943Z,52.83513
2022-11-18T06:54:36.689Z,55.61066
2022-11-18T06:59:38.539Z,55.87942
2022-11-18T07:04:40.282Z,54.0605
2022-11-18T07:09:42.079Z,54.64068
2022-11-18T07:14:43.719Z,53.29773
2022-11-18T07:19:45.459Z,53.53664
2022-11-18T07:24:47.100Z,53.89288
2022-11-18T07:29:48.753Z,54.14341
2022-11-18T07:34:50.545Z,55.1154
2022-11-18T07:39:52.272Z,54.26713
2022-11-18T07:44:54.267Z,53.26271
2022-11-18T07:49:56.003Z,54.51059
2022-11-18T07:54:57.726Z,56.45351
2022-11-18T07:59:59.432Z,56.12627
2022-11-18T08:05:01.401Z,54.757
2022-11-18T08:10:03.107Z,53.89604
2022-11-18T08:15:04.804Z,55.03427
2022-11-18T08:20:06.561Z,57.66277
2022-11-18T08:25:08.253Z,56.16499
2022-11-18T08:30:09.946Z,57.72127
2022-11-18T08:35:11.677Z,57.1165
2022-11-18T08:40:13.645Z,59.00008
2022-11-18T08:45:15.282Z,57.70735
2022-11-18T08:50:17.255Z,56.66918
2022-11-18T08:55:19.070Z,56.67582
2022-11-18T09:00:20.745Z,57.35427
2022-11-18T09:05:22.413Z,57.03609
2022-11-18T09:10:24.365Z,55.10866
2022-11-18T09:15:27.507Z,55.1593
2022-11-18T09:20:29.165Z,54.76896
2022-11-18T09:25:30.778Z,57.05512
2022-11-18T09:30:32.559Z,55.9769
2022-11-18T09:35:34.911Z,55.10883
2022-11-18T09:40:37.094Z,55.73486
2022-11-18T09:45:40.115Z,54.64085
2022-11-18T09:50:49.466Z,53.17253
2022-11-18T09:55:52.426Z,53.46137
2022-11-18T10:00:55.963Z,54.28259
2022-11-18T10:05:58.102Z,55.27978
2022-11-18T10:11:00.032Z,54.53147
2022-11-18T10:16:02.024Z,54.61183
2022-11-18T10:21:03.895Z,52.56452
2022-11-18T10:26:05.908Z,55.49658
2022-11-18T10:31:08.013Z,54.67765
2022-11-18T10:36:09.941Z,54.63487
2022-11-18T10:41:11.709Z,54.31569
2022-11-18T10:46:13.715Z,57.1632
2022-11-18T10:51:15.391Z,56.93024
2022-11-18T10:56:17.633Z,57.87728
2022-11-18T11:01:19.611Z,56.81697
2022-11-18T11:06:21.452Z,54.8208
2022-11-18T11:11:23.192Z,53.39999
2022-11-18T11:16:26.466Z,53.6138
2022-11-18T11:21:28.637Z,53.90201
2022-11-18T11:32:02.856Z,55.03742
2022-11-18T11:37:04.775Z,54.60422
2022-11-18T11:42:06.496Z,55.01845
2022-11-18T11:47:08.296Z,53.80073
2022-11-18T11:52:09.920Z,53.87533
2022-11-18T11:57:11.665Z,57.58965
2022-11-18T12:02:13.497Z,58.27296
2022-11-18T12:07:15.409Z,54.97934
2022-11-18T12:12:17.347Z,52.31283
2022-11-18T12:17:19.067Z,56.01978
2022-11-18T12:22:20.685Z,56.41415
2022-11-18T12:27:22.468Z,57.30491
2022-11-18T12:32:24.063Z,58.13191
2022-11-18T12:37:25.739Z,55.85302
2022-11-18T12:42:27.539Z,57.43591
2022-11-18T12:47:29.195Z,58.4435
2022-11-18T12:52:30.954Z,59.45969
2022-11-18T12:57:32.573Z,57.14585
2022-11-18T13:02:34.200Z,56.66291
2022-11-18T13:07:36.032Z,56.60715
2022-11-18T13:12:37.768Z,55.94116
2022-11-18T13:17:39.401Z,56.53896
2022-11-18T13:22:41.344Z,54.71756
2022-11-18T13:27:42.998Z,54.5615
2022-11-18T13:32:44.726Z,54.58074
2022-11-18T13:37:46.641Z,55.19713
2022-11-18T13:42:48.389Z,54.46412
2022-11-18T13:47:50.102Z,53.93281
2022-11-18T13:52:51.707Z,55.24661
2022-11-18T13:57:53.413Z,53.10239
2022-11-18T14:02:55.138Z,53.87465
2022-11-18T14:07:56.787Z,54.18041
2022-11-18T14:12:58.436Z,54.08187
2022-11-18T14:18:00.133Z,53.72311
2022-11-18T14:23:01.763Z,54.61079
2022-11-18T14:28:03.605Z,53.79169
2022-11-18T14:33:05.276Z,54.84566
2022-11-18T14:38:40.625Z,52.48663
2022-11-18T14:43:49.681Z,52.03462
2022-11-18T14:48:51.308Z,52.31608
2022-11-18T14:53:52.930Z,52.71032
2022-11-18T14:58:54.542Z,53.01968
2022-11-18T15:03:56.186Z,53.16413
2022-11-18T15:08:57.806Z,53.47571
2022-11-18T15:13:59.491Z,52.44221
2022-11-18T15:19:01.343Z,52.05641
2022-11-18T15:24:03.241Z,53.03395
2022-11-18T15:29:04.866Z,52.4294
2022-11-18T15:34:07.034Z,56.25384
2022-11-18T15:39:08.836Z,56.86749
2022-11-18T15:44:10.496Z,56.44306
2022-11-18T15:49:12.210Z,54.99903
2022-11-18T15:54:13.907Z,53.19042
2022-11-18T15:59:15.685Z,53.32464
2022-11-18T16:04:17.809Z,52.02455
2022-11-18T16:09:20.025Z,52.29979
2022-11-18T16:14:22.420Z,56.80415
2022-11-18T16:19:24.529Z,55.49079
2022-11-18T16:24:26.325Z,52.10369
2022-11-18T16:29:28.028Z,50.05024
2022-11-18T16:34:29.646Z,53.41886
2022-11-18T16:39:31.265Z,54.36501
2022-11-18T16:44:32.850Z,52.30026
2022-11-18T16:49:34.487Z,51.25646
2022-11-18T16:54:41.113Z,51.17813
2022-11-18T16:59:46.421Z,50.76128
2022-11-18T17:04:48.042Z,51.67564
2022-11-18T17:09:49.680Z,50.957
2022-11-18T17:14:51.317Z,51.60674
2022-11-18T17:19:52.962Z,50.66735
2022-11-18T17:24:54.581Z,50.32344
2022-11-18T17:29:56.292Z,49.97138
2022-11-18T17:34:57.980Z,49.79996
2022-11-18T17:39:59.761Z,49.13999
2022-11-18T17:45:01.367Z,50.49498
2022-11-18T17:50:03.082Z,55.03037
2022-11-18T17:55:04.799Z,53.99035
2022-11-18T18:00:06.420Z,51.37422
2022-11-18T18:05:08.036Z,52.23965
2022-11-18T18:10:09.629Z,52.18587
2022-11-18T18:15:11.223Z,48.82057
2022-11-18T18:20:12.809Z,49.13056
2022-11-18T18:25:14.440Z,48.25043
2022-11-18T18:30:16.092Z,47.65641
2022-11-18T18:35:17.753Z,47.76574
2022-11-18T18:40:19.533Z,48.06234
2022-11-18T18:45:21.287Z,48.85008
2022-11-18T18:50:28.147Z,48.23023
2022-11-18T18:55:29.894Z,50.03442
2022-11-18T19:00:31.561Z,50.09242
2022-11-18T19:05:53.892Z,49.49248
2022-11-18T19:11:19.128Z,52.06211
2022-11-18T19:16:20.807Z,52.10932
2022-11-18T19:21:22.483Z,51.74939
2022-11-18T19:26:24.263Z,51.77577
2022-11-18T19:31:25.900Z,49.46788
2022-11-18T19:36:27.538Z,48.80845
2022-11-18T19:41:29.506Z,46.73979
2022-11-18T19:46:31.884Z,46.77067
2022-11-18T19:51:33.995Z,46.4933
2022-11-18T19:56:35.689Z,44.48631
2022-11-18T20:01:37.485Z,44.22413
2022-11-18T20:06:39.186Z,41.64245
2022-11-18T20:11:40.943Z,43.05752
2022-11-18T20:16:42.554Z,42.45912
2022-11-18T20:21:44.299Z,41.06003
2022-11-18T20:26:45.981Z,42.56008
2022-11-18T20:31:47.614Z,41.30319
2022-11-18T20:36:49.290Z,41.67966
2022-11-18T20:41:50.984Z,41.3644
2022-11-18T20:46:52.591Z,41.19297
2022-11-18T20:51:54.197Z,43.36032
2022-11-18T20:56:55.822Z,44.7172
2022-11-18T21:01:57.477Z,43.88366
2022-11-18T21:06:59.151Z,43.52048
2022-11-18T21:12:00.848Z,43.08514
2022-11-18T21:17:02.664Z,43.4553
2022-11-18T21:22:04.308Z,43.17856
2022-11-18T21:27:06.021Z,41.17276
2022-11-18T21:32:07.650Z,41.41732
2022-11-18T21:37:09.379Z,41.23541
2022-11-18T21:42:10.995Z,41.67419
2022-11-18T21:47:12.791Z,43.54267
2022-11-18T21:52:14.467Z,42.88948
2022-11-18T21:57:16.280Z,43.82447
2022-11-18T22:02:17.928Z,44.15215
2022-11-18T22:07:19.630Z,45.14726
2022-11-18T22:12:21.311Z,44.29628
2022-11-18T22:17:22.999Z,44.65251
2022-11-18T22:22:24.656Z,46.29548
2022-11-18T22:27:26.326Z,46.78489
2022-11-18T22:32:27.984Z,47.41224
2022-11-18T22:37:29.609Z,48.01103
2022-11-18T22:42:31.235Z,48.53364
2022-11-18T22:47:32.924Z,48.67213
2022-11-18T22:52:34.553Z,48.40216
2022-11-18T22:57:36.203Z,48.08762
2022-11-18T23:02:37.852Z,47.95746
2022-11-18T23:07:39.564Z,48.98005
2022-11-18T23:12:44.955Z,48.36501
2022-11-18T23:17:49.399Z,47.20595
2022-11-18T23:22:51.069Z,46.88456
2022-11-18T23:27:54.335Z,47.91925
2022-11-18T23:32:56.165Z,48.41099
2022-11-18T23:37:58.067Z,47.95295
2022-11-18T23:42:59.694Z,49.85008
2022-11-18T23:48:01.300Z,54.0799
2022-11-18T23:53:02.883Z,49.13333
2022-11-18T23:58:04.510Z,48.68458
